sensor_id;sensor_type;location;lat;lon;timestamp;P1;durP1;ratioP1;P2;durP2;ratioP2
68995;SDS011;56056;48.990;12.146;2023-02-17T00:02:07;10.23;;;9.17;;
68995;SDS011;56056;48.990;12.146;2023-02-17T00:04:33;7.73;;;7.07;;
68995;SDS011;56056;48.990;12.146;2023-02-17T00:06:58;10.43;;;7.50;;
68995;SDS011;56056;48.990;12.146;2023-02-17T00:09:24;6.33;;;4.23;;
68995;SDS011;56056;48.990;12.146;2023-02-17T00:11:50;7.67;;;6.67;;
68995;SDS011;56056;48.990;12.146;2023-02-17T00:14:15;7.07;;;6.13;;
68995;SDS011;56056;48.990;12.146;2023-02-17T00:16:43;8.10;;;7.40;;
68995;SDS011;56056;48.990;12.146;2023-02-17T00:19:09;9.90;;;5.93;;
68995;SDS011;56056;48.990;12.146;2023-02-17T00:21:48;9.77;;;7.67;;
68995;SDS011;56056;48.990;12.146;2023-02-17T00:24:14;6.53;;;6.03;;
68995;SDS011;56056;48.990;12.146;2023-02-17T00:26:40;4.47;;;4.00;;
68995;SDS011;56056;48.990;12.146;2023-02-17T00:29:05;10.83;;;7.37;;
68995;SDS011;56056;48.990;12.146;2023-02-17T00:31:31;7.33;;;6.73;;
68995;SDS011;56056;48.990;12.146;2023-02-17T00:33:58;7.47;;;6.83;;
68995;SDS011;56056;48.990;12.146;2023-02-17T00:36:24;4.93;;;4.63;;
68995;SDS011;56056;48.990;12.146;2023-02-17T00:38:51;7.03;;;6.03;;
68995;SDS011;56056;48.990;12.146;2023-02-17T00:41:18;7.17;;;6.63;;
68995;SDS011;56056;48.990;12.146;2023-02-17T00:43:44;7.80;;;7.23;;
68995;SDS011;56056;48.990;12.146;2023-02-17T00:46:10;8.20;;;7.53;;
68995;SDS011;56056;48.990;12.146;2023-02-17T00:48:36;7.53;;;6.53;;
68995;SDS011;56056;48.990;12.146;2023-02-17T00:51:03;7.77;;;6.80;;
68995;SDS011;56056;48.990;12.146;2023-02-17T00:53:29;5.23;;;5.00;;
68995;SDS011;56056;48.990;12.146;2023-02-17T00:55:54;5.77;;;5.27;;
68995;SDS011;56056;48.990;12.146;2023-02-17T00:58:20;6.50;;;5.97;;
68995;SDS011;56056;48.990;12.146;2023-02-17T01:00:46;8.13;;;7.33;;
68995;SDS011;56056;48.990;12.146;2023-02-17T01:03:11;6.90;;;6.30;;
68995;SDS011;56056;48.990;12.146;2023-02-17T01:05:39;9.33;;;8.37;;
68995;SDS011;56056;48.990;12.146;2023-02-17T01:08:06;6.83;;;5.87;;
68995;SDS011;56056;48.990;12.146;2023-02-17T01:10:34;21.83;;;15.63;;
68995;SDS011;56056;48.990;12.146;2023-02-17T01:13:00;6.57;;;6.07;;
68995;SDS011;56056;48.990;12.146;2023-02-17T01:15:26;6.60;;;6.00;;
68995;SDS011;56056;48.990;12.146;2023-02-17T01:17:52;5.73;;;5.33;;
68995;SDS011;56056;48.990;12.146;2023-02-17T01:20:17;7.57;;;5.50;;
68995;SDS011;56056;48.990;12.146;2023-02-17T01:22:43;11.90;;;8.03;;
68995;SDS011;56056;48.990;12.146;2023-02-17T01:25:10;13.00;;;10.10;;
68995;SDS011;56056;48.990;12.146;2023-02-17T01:27:36;7.23;;;6.63;;
68995;SDS011;56056;48.990;12.146;2023-02-17T01:30:02;7.73;;;6.97;;
68995;SDS011;56056;48.990;12.146;2023-02-17T01:32:28;7.17;;;6.50;;
68995;SDS011;56056;48.990;12.146;2023-02-17T01:34:54;6.23;;;5.17;;
68995;SDS011;56056;48.990;12.146;2023-02-17T01:37:20;7.43;;;6.67;;
68995;SDS011;56056;48.990;12.146;2023-02-17T01:39:45;9.50;;;8.10;;
68995;SDS011;56056;48.990;12.146;2023-02-17T01:42:14;10.27;;;9.43;;
68995;SDS011;56056;48.990;12.146;2023-02-17T01:47:52;8.73;;;8.03;;
68995;SDS011;56056;48.990;12.146;2023-02-17T01:50:21;6.60;;;5.97;;
68995;SDS011;56056;48.990;12.146;2023-02-17T01:52:49;8.47;;;7.10;;
68995;SDS011;56056;48.990;12.146;2023-02-17T01:55:17;4.40;;;4.20;;
68995;SDS011;56056;48.990;12.146;2023-02-17T01:57:45;6.60;;;5.88;;
68995;SDS011;56056;48.990;12.146;2023-02-17T02:00:13;8.87;;;6.30;;
68995;SDS011;56056;48.990;12.146;2023-02-17T02:02:40;10.27;;;9.23;;
68995;SDS011;56056;48.990;12.146;2023-02-17T02:05:08;14.80;;;8.33;;
68995;SDS011;56056;48.990;12.146;2023-02-17T02:07:34;20.63;;;13.27;;
68995;SDS011;56056;48.990;12.146;2023-02-17T02:10:07;7.27;;;6.57;;
68995;SDS011;56056;48.990;12.146;2023-02-17T02:12:34;7.20;;;6.23;;
68995;SDS011;56056;48.990;12.146;2023-02-17T02:15:05;9.70;;;8.87;;
68995;SDS011;56056;48.990;12.146;2023-02-17T02:17:34;7.33;;;6.63;;
68995;SDS011;56056;48.990;12.146;2023-02-17T02:20:17;6.70;;;6.20;;
68995;SDS011;56056;48.990;12.146;2023-02-17T02:28:56;6.53;;;5.13;;
68995;SDS011;56056;48.990;12.146;2023-02-17T02:31:36;7.80;;;6.70;;
68995;SDS011;56056;48.990;12.146;2023-02-17T02:34:11;8.07;;;7.37;;
68995;SDS011;56056;48.990;12.146;2023-02-17T02:36:41;6.33;;;5.73;;
68995;SDS011;56056;48.990;12.146;2023-02-17T02:39:09;13.13;;;7.07;;
68995;SDS011;56056;48.990;12.146;2023-02-17T02:41:36;8.00;;;7.23;;
68995;SDS011;56056;48.990;12.146;2023-02-17T02:44:03;8.93;;;8.03;;
68995;SDS011;56056;48.990;12.146;2023-02-17T02:46:30;9.57;;;8.60;;
68995;SDS011;56056;48.990;12.146;2023-02-17T02:48:55;7.40;;;6.87;;
68995;SDS011;56056;48.990;12.146;2023-02-17T02:51:29;6.27;;;5.77;;
68995;SDS011;56056;48.990;12.146;2023-02-17T02:54:15;10.37;;;7.43;;
68995;SDS011;56056;48.990;12.146;2023-02-17T02:56:46;7.53;;;4.57;;
68995;SDS011;56056;48.990;12.146;2023-02-17T02:59:22;5.70;;;5.27;;
68995;SDS011;56056;48.990;12.146;2023-02-17T03:01:56;210.67;;;109.50;;
68995;SDS011;56056;48.990;12.146;2023-02-17T03:04:27;10.57;;;5.97;;
68995;SDS011;56056;48.990;12.146;2023-02-17T03:07:02;7.17;;;6.63;;
68995;SDS011;56056;48.990;12.146;2023-02-17T03:09:30;26.90;;;18.40;;
68995;SDS011;56056;48.990;12.146;2023-02-17T03:11:56;6.37;;;5.97;;
68995;SDS011;56056;48.990;12.146;2023-02-17T03:14:22;5.20;;;3.60;;
68995;SDS011;56056;48.990;12.146;2023-02-17T03:16:48;7.00;;;6.47;;
68995;SDS011;56056;48.990;12.146;2023-02-17T03:19:16;81.73;;;36.27;;
68995;SDS011;56056;48.990;12.146;2023-02-17T03:21:49;64.03;;;18.10;;
68995;SDS011;56056;48.990;12.146;2023-02-17T03:24:18;7.67;;;6.90;;
68995;SDS011;56056;48.990;12.146;2023-02-17T03:26:44;7.53;;;6.93;;
68995;SDS011;56056;48.990;12.146;2023-02-17T03:29:10;9.43;;;8.63;;
68995;SDS011;56056;48.990;12.146;2023-02-17T03:31:36;5.47;;;5.17;;
68995;SDS011;56056;48.990;12.146;2023-02-17T03:34:01;9.07;;;8.17;;
68995;SDS011;56056;48.990;12.146;2023-02-17T03:36:27;10.73;;;7.20;;
68995;SDS011;56056;48.990;12.146;2023-02-17T03:38:54;9.23;;;6.00;;
68995;SDS011;56056;48.990;12.146;2023-02-17T03:41:21;164.00;;;78.10;;
68995;SDS011;56056;48.990;12.146;2023-02-17T03:43:46;81.30;;;40.80;;
68995;SDS011;56056;48.990;12.146;2023-02-17T03:46:13;5.85;;;5.35;;
68995;SDS011;56056;48.990;12.146;2023-02-17T03:48:39;7.20;;;6.60;;
68995;SDS011;56056;48.990;12.146;2023-02-17T03:51:09;23.40;;;9.03;;
68995;SDS011;56056;48.990;12.146;2023-02-17T03:53:36;10.27;;;8.37;;
68995;SDS011;56056;48.990;12.146;2023-02-17T03:56:02;10.40;;;9.40;;
68995;SDS011;56056;48.990;12.146;2023-02-17T03:58:29;8.40;;;7.63;;
68995;SDS011;56056;48.990;12.146;2023-02-17T04:00:55;16.40;;;7.20;;
68995;SDS011;56056;48.990;12.146;2023-02-17T04:03:21;8.15;;;7.55;;
68995;SDS011;56056;48.990;12.146;2023-02-17T04:05:46;8.07;;;7.23;;
68995;SDS011;56056;48.990;12.146;2023-02-17T04:08:12;18.33;;;8.03;;
68995;SDS011;56056;48.990;12.146;2023-02-17T04:10:37;6.75;;;6.15;;
68995;SDS011;56056;48.990;12.146;2023-02-17T04:13:03;5.53;;;5.05;;
68995;SDS011;56056;48.990;12.146;2023-02-17T04:15:30;12.15;;;6.75;;
68995;SDS011;56056;48.990;12.146;2023-02-17T04:17:56;9.80;;;7.43;;
68995;SDS011;56056;48.990;12.146;2023-02-17T04:20:21;9.47;;;8.37;;
68995;SDS011;56056;48.990;12.146;2023-02-17T04:22:48;12.00;;;8.07;;
68995;SDS011;56056;48.990;12.146;2023-02-17T04:25:13;10.60;;;8.67;;
68995;SDS011;56056;48.990;12.146;2023-02-17T04:27:39;11.57;;;10.60;;
68995;SDS011;56056;48.990;12.146;2023-02-17T04:30:05;11.03;;;7.10;;
68995;SDS011;56056;48.990;12.146;2023-02-17T04:32:33;9.17;;;8.03;;
68995;SDS011;56056;48.990;12.146;2023-02-17T04:34:58;7.38;;;6.70;;
68995;SDS011;56056;48.990;12.146;2023-02-17T04:37:24;8.83;;;7.00;;
68995;SDS011;56056;48.990;12.146;2023-02-17T04:39:50;7.40;;;6.67;;
68995;SDS011;56056;48.990;12.146;2023-02-17T04:42:15;7.90;;;7.23;;
68995;SDS011;56056;48.990;12.146;2023-02-17T04:44:41;7.37;;;6.70;;
68995;SDS011;56056;48.990;12.146;2023-02-17T04:47:07;8.13;;;7.20;;
68995;SDS011;56056;48.990;12.146;2023-02-17T04:49:34;8.83;;;7.97;;
68995;SDS011;56056;48.990;12.146;2023-02-17T04:51:59;9.60;;;8.70;;
68995;SDS011;56056;48.990;12.146;2023-02-17T04:54:25;6.73;;;5.70;;
68995;SDS011;56056;48.990;12.146;2023-02-17T04:56:51;9.93;;;8.10;;
68995;SDS011;56056;48.990;12.146;2023-02-17T04:59:16;8.87;;;8.07;;
68995;SDS011;56056;48.990;12.146;2023-02-17T05:01:42;483.97;;;106.40;;
68995;SDS011;56056;48.990;12.146;2023-02-17T05:04:07;9.50;;;7.90;;
68995;SDS011;56056;48.990;12.146;2023-02-17T05:06:34;7.80;;;7.13;;
68995;SDS011;56056;48.990;12.146;2023-02-17T05:09:00;9.93;;;8.63;;
68995;SDS011;56056;48.990;12.146;2023-02-17T05:11:26;12.37;;;10.60;;
68995;SDS011;56056;48.990;12.146;2023-02-17T05:13:51;73.43;;;18.90;;
68995;SDS011;56056;48.990;12.146;2023-02-17T05:16:17;17.33;;;8.30;;
68995;SDS011;56056;48.990;12.146;2023-02-17T05:18:43;6.63;;;6.03;;
68995;SDS011;56056;48.990;12.146;2023-02-17T05:21:08;11.70;;;6.90;;
68995;SDS011;56056;48.990;12.146;2023-02-17T05:23:35;9.03;;;8.23;;
68995;SDS011;56056;48.990;12.146;2023-02-17T05:26:05;7.67;;;7.03;;
68995;SDS011;56056;48.990;12.146;2023-02-17T05:28:31;8.57;;;7.77;;
68995;SDS011;56056;48.990;12.146;2023-02-17T05:30:56;13.73;;;9.13;;
68995;SDS011;56056;48.990;12.146;2023-02-17T05:33:22;8.03;;;7.40;;
68995;SDS011;56056;48.990;12.146;2023-02-17T05:35:47;9.10;;;8.23;;
68995;SDS011;56056;48.990;12.146;2023-02-17T05:38:13;10.10;;;8.77;;
68995;SDS011;56056;48.990;12.146;2023-02-17T05:40:40;6.83;;;6.13;;
68995;SDS011;56056;48.990;12.146;2023-02-17T05:43:06;6.57;;;5.97;;
68995;SDS011;56056;48.990;12.146;2023-02-17T05:45:31;9.67;;;7.90;;
68995;SDS011;56056;48.990;12.146;2023-02-17T05:47:57;8.17;;;7.37;;
68995;SDS011;56056;48.990;12.146;2023-02-17T05:50:23;9.70;;;8.70;;
68995;SDS011;56056;48.990;12.146;2023-02-17T05:52:48;13.80;;;8.63;;
68995;SDS011;56056;48.990;12.146;2023-02-17T05:55:14;8.83;;;8.10;;
68995;SDS011;56056;48.990;12.146;2023-02-17T05:57:41;11.90;;;8.90;;
68995;SDS011;56056;48.990;12.146;2023-02-17T06:00:07;10.47;;;9.03;;
68995;SDS011;56056;48.990;12.146;2023-02-17T06:02:33;6.00;;;5.55;;
68995;SDS011;56056;48.990;12.146;2023-02-17T06:04:59;6.30;;;5.70;;
68995;SDS011;56056;48.990;12.146;2023-02-17T06:07:24;6.93;;;6.50;;
68995;SDS011;56056;48.990;12.146;2023-02-17T06:09:50;12.20;;;8.97;;
68995;SDS011;56056;48.990;12.146;2023-02-17T06:12:16;9.03;;;8.17;;
68995;SDS011;56056;48.990;12.146;2023-02-17T06:14:43;12.90;;;8.17;;
68995;SDS011;56056;48.990;12.146;2023-02-17T06:17:08;8.82;;;8.02;;
68995;SDS011;56056;48.990;12.146;2023-02-17T06:19:34;10.83;;;7.60;;
68995;SDS011;56056;48.990;12.146;2023-02-17T06:22:00;9.07;;;7.73;;
68995;SDS011;56056;48.990;12.146;2023-02-17T06:24:25;11.70;;;8.10;;
68995;SDS011;56056;48.990;12.146;2023-02-17T06:26:51;19.53;;;11.07;;
68995;SDS011;56056;48.990;12.146;2023-02-17T06:29:17;16.77;;;14.87;;
68995;SDS011;56056;48.990;12.146;2023-02-17T06:31:44;11.83;;;10.87;;
68995;SDS011;56056;48.990;12.146;2023-02-17T06:34:09;8.57;;;7.65;;
68995;SDS011;56056;48.990;12.146;2023-02-17T06:36:36;7.83;;;6.73;;
68995;SDS011;56056;48.990;12.146;2023-02-17T06:39:02;9.10;;;8.13;;
68995;SDS011;56056;48.990;12.146;2023-02-17T06:41:27;6.70;;;6.10;;
68995;SDS011;56056;48.990;12.146;2023-02-17T06:43:53;10.33;;;8.57;;
68995;SDS011;56056;48.990;12.146;2023-02-17T06:46:19;15.25;;;9.60;;
68995;SDS011;56056;48.990;12.146;2023-02-17T06:48:46;9.23;;;8.13;;
68995;SDS011;56056;48.990;12.146;2023-02-17T06:51:11;19.13;;;16.83;;
68995;SDS011;56056;48.990;12.146;2023-02-17T06:53:37;7.40;;;6.77;;
68995;SDS011;56056;48.990;12.146;2023-02-17T06:56:03;148.80;;;34.07;;
68995;SDS011;56056;48.990;12.146;2023-02-17T06:58:29;15.87;;;14.33;;
68995;SDS011;56056;48.990;12.146;2023-02-17T07:00:56;14.83;;;13.73;;
68995;SDS011;56056;48.990;12.146;2023-02-17T07:03:22;20.90;;;8.77;;
68995;SDS011;56056;48.990;12.146;2023-02-17T07:05:49;20.57;;;17.63;;
68995;SDS011;56056;48.990;12.146;2023-02-17T07:08:15;9.33;;;8.43;;
68995;SDS011;56056;48.990;12.146;2023-02-17T07:10:40;37.07;;;21.50;;
68995;SDS011;56056;48.990;12.146;2023-02-17T07:13:06;9.13;;;8.07;;
68995;SDS011;56056;48.990;12.146;2023-02-17T07:15:32;9.40;;;8.20;;
68995;SDS011;56056;48.990;12.146;2023-02-17T07:17:58;11.17;;;8.00;;
68995;SDS011;56056;48.990;12.146;2023-02-17T07:20:25;9.15;;;7.90;;
68995;SDS011;56056;48.990;12.146;2023-02-17T07:22:52;9.50;;;8.63;;
68995;SDS011;56056;48.990;12.146;2023-02-17T07:25:17;6.60;;;6.00;;
68995;SDS011;56056;48.990;12.146;2023-02-17T07:27:43;10.67;;;9.77;;
68995;SDS011;56056;48.990;12.146;2023-02-17T07:30:09;5.80;;;5.40;;
68995;SDS011;56056;48.990;12.146;2023-02-17T07:32:35;7.63;;;7.03;;
68995;SDS011;56056;48.990;12.146;2023-02-17T07:35:01;7.33;;;6.60;;
68995;SDS011;56056;48.990;12.146;2023-02-17T07:37:26;829.50;;;268.87;;
68995;SDS011;56056;48.990;12.146;2023-02-17T07:39:53;22.60;;;17.50;;
68995;SDS011;56056;48.990;12.146;2023-02-17T07:42:21;62.53;;;56.43;;
68995;SDS011;56056;48.990;12.146;2023-02-17T07:44:46;62.27;;;35.63;;
68995;SDS011;56056;48.990;12.146;2023-02-17T07:47:12;11.23;;;10.40;;
68995;SDS011;56056;48.990;12.146;2023-02-17T07:49:38;88.73;;;46.37;;
68995;SDS011;56056;48.990;12.146;2023-02-17T07:52:04;287.77;;;102.77;;
68995;SDS011;56056;48.990;12.146;2023-02-17T07:54:30;22.53;;;19.43;;
68995;SDS011;56056;48.990;12.146;2023-02-17T07:56:57;6.23;;;5.73;;
68995;SDS011;56056;48.990;12.146;2023-02-17T07:59:22;12.90;;;9.70;;
68995;SDS011;56056;48.990;12.146;2023-02-17T08:01:48;37.17;;;27.73;;
68995;SDS011;56056;48.990;12.146;2023-02-17T08:04:14;14.80;;;10.80;;
68995;SDS011;56056;48.990;12.146;2023-02-17T08:06:40;10.73;;;8.77;;
68995;SDS011;56056;48.990;12.146;2023-02-17T08:09:05;8.63;;;7.93;;
68995;SDS011;56056;48.990;12.146;2023-02-17T08:11:50;33.73;;;13.23;;
68995;SDS011;56056;48.990;12.146;2023-02-17T08:14:35;99.85;;;43.97;;
68995;SDS011;56056;48.990;12.146;2023-02-17T08:17:02;8.95;;;7.97;;
68995;SDS011;56056;48.990;12.146;2023-02-17T08:19:28;11.60;;;8.80;;
68995;SDS011;56056;48.990;12.146;2023-02-17T08:21:53;12.55;;;11.35;;
68995;SDS011;56056;48.990;12.146;2023-02-17T08:24:19;9.77;;;8.93;;
68995;SDS011;56056;48.990;12.146;2023-02-17T08:26:45;24.08;;;16.35;;
68995;SDS011;56056;48.990;12.146;2023-02-17T08:29:11;10.85;;;8.80;;
68995;SDS011;56056;48.990;12.146;2023-02-17T08:31:39;9.80;;;8.77;;
68995;SDS011;56056;48.990;12.146;2023-02-17T08:34:06;12.35;;;9.27;;
68995;SDS011;56056;48.990;12.146;2023-02-17T08:36:32;10.57;;;9.27;;
68995;SDS011;56056;48.990;12.146;2023-02-17T08:39:01;15.20;;;12.18;;
68995;SDS011;56056;48.990;12.146;2023-02-17T08:41:28;390.98;;;128.82;;
68995;SDS011;56056;48.990;12.146;2023-02-17T08:43:55;10.15;;;9.23;;
68995;SDS011;56056;48.990;12.146;2023-02-17T08:46:22;14.18;;;10.00;;
68995;SDS011;56056;48.990;12.146;2023-02-17T08:48:49;9.57;;;8.77;;
68995;SDS011;56056;48.990;12.146;2023-02-17T08:51:16;10.75;;;9.82;;
68995;SDS011;56056;48.990;12.146;2023-02-17T08:53:47;10.80;;;9.70;;
68995;SDS011;56056;48.990;12.146;2023-02-17T08:56:13;10.88;;;9.40;;
68995;SDS011;56056;48.990;12.146;2023-02-17T08:58:39;10.07;;;8.98;;
68995;SDS011;56056;48.990;12.146;2023-02-17T09:01:05;11.05;;;9.90;;
68995;SDS011;56056;48.990;12.146;2023-02-17T09:03:32;11.13;;;10.15;;
68995;SDS011;56056;48.990;12.146;2023-02-17T09:05:59;9.73;;;8.82;;
68995;SDS011;56056;48.990;12.146;2023-02-17T09:08:25;9.50;;;8.70;;
68995;SDS011;56056;48.990;12.146;2023-02-17T09:10:51;10.32;;;8.95;;
68995;SDS011;56056;48.990;12.146;2023-02-17T09:13:17;14.82;;;10.18;;
68995;SDS011;56056;48.990;12.146;2023-02-17T09:15:43;14.18;;;8.38;;
68995;SDS011;56056;48.990;12.146;2023-02-17T09:18:08;14.35;;;9.20;;
68995;SDS011;56056;48.990;12.146;2023-02-17T09:20:34;16.50;;;10.35;;
68995;SDS011;56056;48.990;12.146;2023-02-17T09:23:01;13.93;;;12.68;;
68995;SDS011;56056;48.990;12.146;2023-02-17T09:25:27;9.02;;;8.30;;
68995;SDS011;56056;48.990;12.146;2023-02-17T09:27:53;10.70;;;9.57;;
68995;SDS011;56056;48.990;12.146;2023-02-17T09:30:19;10.48;;;8.45;;
68995;SDS011;56056;48.990;12.146;2023-02-17T09:32:44;13.98;;;10.15;;
68995;SDS011;56056;48.990;12.146;2023-02-17T09:35:10;9.50;;;8.60;;
68995;SDS011;56056;48.990;12.146;2023-02-17T09:37:36;9.85;;;8.95;;
68995;SDS011;56056;48.990;12.146;2023-02-17T09:40:03;11.00;;;9.90;;
68995;SDS011;56056;48.990;12.146;2023-02-17T09:42:38;10.13;;;9.15;;
68995;SDS011;56056;48.990;12.146;2023-02-17T09:45:05;10.98;;;9.45;;
68995;SDS011;56056;48.990;12.146;2023-02-17T09:47:35;12.20;;;10.05;;
68995;SDS011;56056;48.990;12.146;2023-02-17T09:50:05;11.20;;;9.88;;
68995;SDS011;56056;48.990;12.146;2023-02-17T09:52:33;12.82;;;10.30;;
68995;SDS011;56056;48.990;12.146;2023-02-17T09:55:03;12.48;;;11.25;;
68995;SDS011;56056;48.990;12.146;2023-02-17T09:57:32;26.88;;;21.40;;
68995;SDS011;56056;48.990;12.146;2023-02-17T10:00:02;58.13;;;40.28;;
68995;SDS011;56056;48.990;12.146;2023-02-17T10:02:32;61.50;;;42.13;;
68995;SDS011;56056;48.990;12.146;2023-02-17T10:05:02;31.75;;;21.65;;
68995;SDS011;56056;48.990;12.146;2023-02-17T10:07:31;272.08;;;137.00;;
68995;SDS011;56056;48.990;12.146;2023-02-17T10:10:02;314.38;;;156.15;;
68995;SDS011;56056;48.990;12.146;2023-02-17T10:12:35;415.35;;;157.95;;
68995;SDS011;56056;48.990;12.146;2023-02-17T10:15:04;286.27;;;128.38;;
68995;SDS011;56056;48.990;12.146;2023-02-17T10:17:32;1176.22;;;361.35;;
68995;SDS011;56056;48.990;12.146;2023-02-17T10:20:02;301.67;;;144.35;;
68995;SDS011;56056;48.990;12.146;2023-02-17T10:22:30;1944.00;;;630.33;;
68995;SDS011;56056;48.990;12.146;2023-02-17T10:24:56;1475.75;;;554.90;;
68995;SDS011;56056;48.990;12.146;2023-02-17T10:27:29;482.23;;;177.85;;
68995;SDS011;56056;48.990;12.146;2023-02-17T10:30:05;683.08;;;256.77;;
68995;SDS011;56056;48.990;12.146;2023-02-17T10:32:50;1999.90;;;623.00;;
68995;SDS011;56056;48.990;12.146;2023-02-17T10:35:23;676.70;;;248.27;;
68995;SDS011;56056;48.990;12.146;2023-02-17T10:38:01;1999.90;;;557.05;;
68995;SDS011;56056;48.990;12.146;2023-02-17T10:40:30;1999.90;;;851.83;;
68995;SDS011;56056;48.990;12.146;2023-02-17T10:42:59;988.85;;;312.17;;
68995;SDS011;56056;48.990;12.146;2023-02-17T10:45:26;1152.65;;;432.92;;
68995;SDS011;56056;48.990;12.146;2023-02-17T10:47:56;1999.90;;;718.88;;
68995;SDS011;56056;48.990;12.146;2023-02-17T10:50:23;1796.03;;;593.92;;
68995;SDS011;56056;48.990;12.146;2023-02-17T10:52:49;1445.05;;;576.63;;
68995;SDS011;56056;48.990;12.146;2023-02-17T10:55:17;1999.90;;;737.83;;
68995;SDS011;56056;48.990;12.146;2023-02-17T10:57:45;1999.90;;;835.05;;
68995;SDS011;56056;48.990;12.146;2023-02-17T11:00:16;1999.90;;;769.80;;
68995;SDS011;56056;48.990;12.146;2023-02-17T11:02:44;1999.90;;;999.17;;
68995;SDS011;56056;48.990;12.146;2023-02-17T11:05:19;1999.90;;;688.70;;
68995;SDS011;56056;48.990;12.146;2023-02-17T11:07:46;1222.80;;;487.60;;
68995;SDS011;56056;48.990;12.146;2023-02-17T11:10:19;1613.55;;;476.70;;
68995;SDS011;56056;48.990;12.146;2023-02-17T11:12:46;1999.90;;;635.72;;
68995;SDS011;56056;48.990;12.146;2023-02-17T11:15:14;1999.90;;;744.40;;
68995;SDS011;56056;48.990;12.146;2023-02-17T11:17:43;1328.35;;;380.83;;
68995;SDS011;56056;48.990;12.146;2023-02-17T11:20:26;1871.43;;;655.33;;
68995;SDS011;56056;48.990;12.146;2023-02-17T11:22:59;1999.90;;;783.65;;
68995;SDS011;56056;48.990;12.146;2023-02-17T11:25:27;1999.90;;;999.90;;
68995;SDS011;56056;48.990;12.146;2023-02-17T11:27:54;1762.05;;;522.63;;
68995;SDS011;56056;48.990;12.146;2023-02-17T11:30:22;1999.90;;;889.53;;
68995;SDS011;56056;48.990;12.146;2023-02-17T11:32:49;1999.90;;;941.30;;
68995;SDS011;56056;48.990;12.146;2023-02-17T11:35:22;1982.97;;;804.47;;
68995;SDS011;56056;48.990;12.146;2023-02-17T11:37:49;1491.18;;;518.80;;
68995;SDS011;56056;48.990;12.146;2023-02-17T11:40:23;1999.90;;;914.42;;
68995;SDS011;56056;48.990;12.146;2023-02-17T11:42:54;1781.40;;;699.90;;
68995;SDS011;56056;48.990;12.146;2023-02-17T11:45:21;1999.90;;;598.72;;
68995;SDS011;56056;48.990;12.146;2023-02-17T11:47:52;1999.90;;;999.90;;
68995;SDS011;56056;48.990;12.146;2023-02-17T11:50:29;1999.90;;;656.30;;
68995;SDS011;56056;48.990;12.146;2023-02-17T11:53:02;1925.50;;;643.08;;
68995;SDS011;56056;48.990;12.146;2023-02-17T11:55:37;1359.35;;;527.08;;
68995;SDS011;56056;48.990;12.146;2023-02-17T11:58:11;1999.90;;;836.42;;
68995;SDS011;56056;48.990;12.146;2023-02-17T12:00:44;1999.90;;;660.42;;
68995;SDS011;56056;48.990;12.146;2023-02-17T12:06:10;1990.85;;;670.00;;
68995;SDS011;56056;48.990;12.146;2023-02-17T12:08:44;1999.90;;;821.63;;
68995;SDS011;56056;48.990;12.146;2023-02-17T12:11:25;1985.03;;;658.28;;
68995;SDS011;56056;48.990;12.146;2023-02-17T12:13:58;1999.90;;;911.75;;
68995;SDS011;56056;48.990;12.146;2023-02-17T12:16:37;1999.90;;;778.20;;
68995;SDS011;56056;48.990;12.146;2023-02-17T12:19:12;1999.90;;;788.88;;
68995;SDS011;56056;48.990;12.146;2023-02-17T12:21:51;1999.90;;;985.50;;
68995;SDS011;56056;48.990;12.146;2023-02-17T12:24:27;1999.90;;;846.80;;
68995;SDS011;56056;48.990;12.146;2023-02-17T12:27:00;1999.90;;;999.90;;
68995;SDS011;56056;48.990;12.146;2023-02-17T12:29:33;1999.90;;;741.13;;
68995;SDS011;56056;48.990;12.146;2023-02-17T12:32:14;1999.90;;;999.90;;
68995;SDS011;56056;48.990;12.146;2023-02-17T12:34:48;1893.97;;;644.70;;
68995;SDS011;56056;48.990;12.146;2023-02-17T12:37:18;1999.90;;;999.90;;
68995;SDS011;56056;48.990;12.146;2023-02-17T12:39:47;1999.90;;;999.90;;
68995;SDS011;56056;48.990;12.146;2023-02-17T12:42:16;1999.90;;;999.90;;
68995;SDS011;56056;48.990;12.146;2023-02-17T12:44:45;1999.90;;;999.90;;
68995;SDS011;56056;48.990;12.146;2023-02-17T12:47:15;1999.90;;;979.63;;
68995;SDS011;56056;48.990;12.146;2023-02-17T12:49:44;1999.90;;;695.63;;
68995;SDS011;56056;48.990;12.146;2023-02-17T12:52:15;1999.90;;;948.70;;
68995;SDS011;56056;48.990;12.146;2023-02-17T12:54:44;1999.90;;;805.55;;
68995;SDS011;56056;48.990;12.146;2023-02-17T12:57:14;1999.90;;;853.10;;
68995;SDS011;56056;48.990;12.146;2023-02-17T12:59:42;1999.90;;;765.75;;
68995;SDS011;56056;48.990;12.146;2023-02-17T13:02:09;1999.90;;;834.20;;
68995;SDS011;56056;48.990;12.146;2023-02-17T13:04:37;1999.90;;;798.15;;
68995;SDS011;56056;48.990;12.146;2023-02-17T13:07:07;1999.90;;;965.03;;
68995;SDS011;56056;48.990;12.146;2023-02-17T13:09:40;1999.90;;;865.88;;
68995;SDS011;56056;48.990;12.146;2023-02-17T13:12:09;1999.90;;;950.28;;
68995;SDS011;56056;48.990;12.146;2023-02-17T13:14:50;1999.90;;;938.05;;
68995;SDS011;56056;48.990;12.146;2023-02-17T13:17:21;1999.90;;;912.95;;
68995;SDS011;56056;48.990;12.146;2023-02-17T13:19:58;1999.90;;;818.97;;
68995;SDS011;56056;48.990;12.146;2023-02-17T13:22:36;1999.90;;;673.72;;
68995;SDS011;56056;48.990;12.146;2023-02-17T13:25:02;1999.90;;;940.55;;
68995;SDS011;56056;48.990;12.146;2023-02-17T13:27:30;1999.90;;;516.10;;
68995;SDS011;56056;48.990;12.146;2023-02-17T13:29:57;1999.90;;;896.85;;
68995;SDS011;56056;48.990;12.146;2023-02-17T13:32:26;1999.90;;;612.25;;
68995;SDS011;56056;48.990;12.146;2023-02-17T13:34:59;1999.90;;;453.15;;
68995;SDS011;56056;48.990;12.146;2023-02-17T13:37:36;1999.90;;;999.90;;
68995;SDS011;56056;48.990;12.146;2023-02-17T13:40:24;1999.90;;;996.80;;
68995;SDS011;56056;48.990;12.146;2023-02-17T13:43:06;1848.40;;;641.78;;
68995;SDS011;56056;48.990;12.146;2023-02-17T13:45:34;1999.90;;;915.20;;
68995;SDS011;56056;48.990;12.146;2023-02-17T13:48:10;1999.90;;;796.63;;
68995;SDS011;56056;48.990;12.146;2023-02-17T13:50:42;1999.90;;;861.55;;
68995;SDS011;56056;48.990;12.146;2023-02-17T13:53:19;1999.90;;;950.95;;
68995;SDS011;56056;48.990;12.146;2023-02-17T13:55:49;1959.80;;;570.30;;
68995;SDS011;56056;48.990;12.146;2023-02-17T13:58:20;1999.90;;;999.90;;
68995;SDS011;56056;48.990;12.146;2023-02-17T14:00:47;1999.90;;;999.90;;
68995;SDS011;56056;48.990;12.146;2023-02-17T14:03:15;1999.90;;;956.95;;
68995;SDS011;56056;48.990;12.146;2023-02-17T14:05:46;1999.90;;;737.53;;
68995;SDS011;56056;48.990;12.146;2023-02-17T14:08:13;1999.90;;;773.85;;
68995;SDS011;56056;48.990;12.146;2023-02-17T14:10:42;1999.90;;;997.78;;
68995;SDS011;56056;48.990;12.146;2023-02-17T14:13:08;1574.28;;;553.50;;
68995;SDS011;56056;48.990;12.146;2023-02-17T14:15:35;1999.90;;;795.00;;
68995;SDS011;56056;48.990;12.146;2023-02-17T14:18:10;1999.90;;;895.17;;
68995;SDS011;56056;48.990;12.146;2023-02-17T14:20:37;1999.90;;;955.42;;
68995;SDS011;56056;48.990;12.146;2023-02-17T14:23:05;1999.90;;;841.40;;
68995;SDS011;56056;48.990;12.146;2023-02-17T14:25:33;1999.90;;;999.90;;
68995;SDS011;56056;48.990;12.146;2023-02-17T14:27:59;1999.90;;;935.35;;